WetterOnline ( https://www.wetteronline.de )

Wetter aktuell Leipzig

Aktuelles Wetter: Leipzig-Holzhausen (138m)

6-stündlich | Neueste Meldungen
Ortszeit Temperatur Wetter
Do, 19.05. 20:00 25.0° C bewölkt
Do, 19.05. 14:00 26.2° C leicht bewölkt
Do, 19.05. 8:00 17.8° C wolkig
Do, 19.05. 2:00 14.6° C wolkig
Mi, 18.05. 20:00 24.2° C leicht bewölkt
Mi, 18.05. 14:00 23.6° C fast wolkenlos
Mi, 18.05. 8:00 15.5° C bedeckt
Mi, 18.05. 2:00 11.4° C wolkig
Ortszeit Temperatur Wetter
Fr, 20.05. 0:30 17.1° C bedeckt
Fr, 20.05. 0:20 17.1° C bedeckt
Fr, 20.05. 0:10 17.2° C bedeckt
Fr, 20.05. 0:00 17.2° C Regen
Do, 19.05. 23:50 17.2° C wolkig
Do, 19.05. 23:40 17.4° C leichter Regen
Do, 19.05. 23:30 17.1° C leichter Regen
Do, 19.05. 23:00 17.5° C leichter Regen
Do, 19.05. 22:30 20.7° C leichter Regen
Do, 19.05. 22:00 22.3° C wolkig
Do, 19.05. 21:30 20.5° C wolkig
Ortszeit Relative Feuchte Sichtweite
Do, 19.05. 20:00 46% 60 km
Do, 19.05. 14:00 34% 45 km
Do, 19.05. 8:00 61% 50 km
Do, 19.05. 2:00 78% 40 km
Mi, 18.05. 20:00 42% 65 km
Mi, 18.05. 14:00 45% 45 km
Mi, 18.05. 8:00 83% 25 km
Mi, 18.05. 2:00 97% 11 km
Ortszeit Relative Feuchte Sichtweite
Fr, 20.05. 0:30 91% 50 km
Fr, 20.05. 0:20 91% -
Fr, 20.05. 0:10 90% -
Fr, 20.05. 0:00 90% 60 km
Do, 19.05. 23:50 90% -
Do, 19.05. 23:40 90% -
Do, 19.05. 23:30 91% 15 km
Do, 19.05. 23:00 86% 24 km
Do, 19.05. 22:30 69% 27 km
Do, 19.05. 22:00 58% 45 km
Do, 19.05. 21:30 68% 55 km
Ortszeit Niederschlagsmenge Niederschlagsart
Do, 19.05. 20:00 0.0 l/m2 in 12 Std. -
Do, 19.05. 14:00 0.0 l/m2 in 6 Std. -
Do, 19.05. 8:00 0.0 l/m2 in 12 Std. -
Do, 19.05. 2:00 0.0 l/m2 in 6 Std. -
Mi, 18.05. 20:00 0.0 l/m2 in 12 Std. -
Mi, 18.05. 14:00 0.0 l/m2 in 6 Std. -
Mi, 18.05. 8:00 0.0 l/m2 in 12 Std. -
Mi, 18.05. 2:00 0.0 l/m2 in 6 Std. -
Ortszeit Niederschlagsmenge Niederschlagsart
Fr, 20.05. 0:30 0.0 l/m2 in 1 Std. -
Fr, 20.05. 0:20 keine Meldung -
Fr, 20.05. 0:10 keine Meldung -
Fr, 20.05. 0:00 1.3 l/m2 in 1 Std. Regen
Do, 19.05. 23:50 keine Meldung -
Do, 19.05. 23:40 keine Meldung -
Do, 19.05. 23:30 1.1 l/m2 in 1 Std. -
Do, 19.05. 23:00 2.1 l/m2 in 1 Std. Regen
Do, 19.05. 22:30 0.1 l/m2 in 1 Std. -
Do, 19.05. 22:00 0.0 l/m2 in 1 Std. -
Do, 19.05. 21:30 0.0 l/m2 in 1 Std. -
Ortszeit Stärke Spitze Richtung
km/h Bft. km/h Grad Sektor
Do, 19.05. 20:00 4 1 25 150° SO
Do, 19.05. 14:00 11 2 25 170° S
Do, 19.05. 8:00 7 2 14 170° S
Do, 19.05. 2:00 4 1 14 170° S
Mi, 18.05. 20:00 4 1 22 120° SO
Mi, 18.05. 14:00 9 2 24 110° O
Mi, 18.05. 8:00 4 1 11 160° S
Mi, 18.05. 2:00 2 1 7 130° SO
Ortszeit Stärke Spitze Richtung
km/h Bft. km/h Grad Sektor
Fr, 20.05. 0:30 9 2 20 230° SW
Fr, 20.05. 0:20 9 2 - 230° SW
Fr, 20.05. 0:10 9 2 - 230° SW
Fr, 20.05. 0:00 11 2 22 200° S
Do, 19.05. 23:50 11 2 - 200° S
Do, 19.05. 23:40 13 3 - 170° S
Do, 19.05. 23:30 7 2 20 190° S
Do, 19.05. 23:00 14 3 43 260° W
Do, 19.05. 22:30 22 4 43 260° W
Do, 19.05. 22:00 17 3 37 330° NW
Do, 19.05. 21:30 4 1 7 240° SW
Ortszeit Untergrenze Bedeckung Gattung
total tief tief mittel hoch
Do, 19.05. 20:00 4500 m 8/8 4/8 - - -
Do, 19.05. 14:00 8400 m 6/8 0/8 - - -
Do, 19.05. 8:00 8700 m 8/8 0/8 - - -
Do, 19.05. 2:00 9000 m 8/8 0/8 - - -
Mi, 18.05. 20:00 10500 m 6/8 0/8 - - -
Mi, 18.05. 14:00 9000 m 2/8 0/8 - - -
Mi, 18.05. 8:00 5100 m 8/8 8/8 - - -
Mi, 18.05. 2:00 1500 m 8/8 1/8 - - -
Ortszeit Bedeckungsgrad in Achtel und Wolkenuntergrenze
Fr, 20.05. 0:30 5(3900m) 8(4200m) 8(6000m)
Fr, 20.05. 0:20 5(3900m) 8(4200m) 8(6000m)
Fr, 20.05. 0:10 8
Fr, 20.05. 0:00 2(2100m) 4(3000m) 8(3900m)
Do, 19.05. 23:50 2(2100m) 4(3000m) 8(3900m)
Do, 19.05. 23:40 8
Do, 19.05. 23:30 5(2400m) 8(3000m)
Do, 19.05. 23:00 1(2100m) 8(3000m)
Do, 19.05. 22:30 1(2100m) 8(3600m) 8(5400m)
Do, 19.05. 22:00 2(2400m) 8(6600m) 8(8100m)
Do, 19.05. 21:30 1(2700m) 7(4800m) 8(9000m)
Ortszeit Luftdruck NN (hPa) Tendenz (hPa in 3 Std.)
Do, 19.05. 20:00 1017 - 0,6
Do, 19.05. 14:00 1020 - 1,8
Do, 19.05. 8:00 1023 + 0,5
Do, 19.05. 2:00 1023 - 0,4
Mi, 18.05. 20:00 1023 - 0,4
Mi, 18.05. 14:00 1024 - 0,7
Mi, 18.05. 8:00 1025 + 1,2
Mi, 18.05. 2:00 1023 + 0,8
Ortszeit Luftdruck NN (hPa) Tendenz (hPa in 3 Std.)
Fr, 20.05. 0:30 1019 + 1,2
Fr, 20.05. 0:20 1019 keine Meldung
Fr, 20.05. 0:10 1019 keine Meldung
Fr, 20.05. 0:00 1019 + 1,0
Do, 19.05. 23:50 1019 keine Meldung
Do, 19.05. 23:40 1018 keine Meldung
Do, 19.05. 23:30 1019 + 1,3
Do, 19.05. 23:00 1020 + 2,1
Do, 19.05. 22:30 1020 + 3,0
Do, 19.05. 22:00 1019 + 1,5
Do, 19.05. 21:30 1018 + 0,5
Ortszeit Schneehöhe (cm)
Do, 19.05. 20:00 0
Do, 19.05. 14:00 0
Do, 19.05. 8:00 0
Do, 19.05. 2:00 0
Mi, 18.05. 20:00 0
Mi, 18.05. 14:00 0
Mi, 18.05. 8:00 0
Mi, 18.05. 2:00 0
Ortszeit Schneehöhe (cm)
Fr, 20.05. 0:30 0
Fr, 20.05. 0:20 0
Fr, 20.05. 0:10 0
Fr, 20.05. 0:00 0
Do, 19.05. 23:50 0
Do, 19.05. 23:40 0
Do, 19.05. 23:30 0
Do, 19.05. 23:00 0
Do, 19.05. 22:30 0
Do, 19.05. 22:00 0
Do, 19.05. 21:30 0
Link zu dieser Seite / Seite empfehlen

Das Wetter in ...